createdAt,value
2023-04-18T00:00:02.603Z,101229.25
2023-04-18T00:01:14.988Z,101232.00
2023-04-18T00:02:20.721Z,101225.63
2023-04-18T00:03:23.300Z,101225.63
2023-04-18T00:04:26.295Z,101229.25
2023-04-18T00:05:29.773Z,101227.53
2023-04-18T00:06:32.559Z,101227.31
2023-04-18T00:07:35.705Z,101228.16
2023-04-18T00:08:38.007Z,101227.31
2023-04-18T00:09:40.748Z,101219.06
2023-04-18T00:10:43.108Z,101222.66
2023-04-18T00:11:45.585Z,101229.84
2023-04-18T00:12:47.841Z,101222.66
2023-04-18T00:13:50.052Z,101220.75
2023-04-18T00:14:52.371Z,101221.81
2023-04-18T00:15:55.312Z,101220.75
2023-04-18T00:16:57.699Z,101227.97
2023-04-18T00:18:03.795Z,101221.59
2023-04-18T00:19:06.398Z,101225.22
2023-04-18T00:20:13.057Z,101226.03
2023-04-18T00:21:17.520Z,101221.59
2023-04-18T00:22:22.636Z,101226.03
2023-04-18T00:23:28.274Z,101219.72
2023-04-18T00:24:30.663Z,101222.47
2023-04-18T00:25:32.955Z,101219.47
2023-04-18T00:26:35.188Z,101219.47
2023-04-18T00:27:41.707Z,101217.56
2023-04-18T00:28:43.981Z,101223.06
2023-04-18T00:29:47.390Z,101213.97
2023-04-18T00:30:51.836Z,101213.75
2023-04-18T00:31:54.097Z,101221.19
2023-04-18T00:32:56.995Z,101212.94
2023-04-18T00:34:00.166Z,101218.44
2023-04-18T00:35:02.509Z,101213.75
2023-04-18T00:36:05.273Z,101212.69
2023-04-18T00:37:07.855Z,101216.28
2023-04-18T00:38:10.151Z,101221.78
2023-04-18T00:39:12.559Z,101212.69
2023-04-18T00:40:16.692Z,101217.97
2023-04-18T00:41:20.186Z,101215.22
2023-04-18T00:42:22.667Z,101217.97
2023-04-18T00:43:25.028Z,101222.41
2023-04-18T00:44:27.276Z,101213.31
2023-04-18T00:45:29.595Z,101208.66
2023-04-18T00:46:32.582Z,101206.75
2023-04-18T00:47:34.892Z,101215.88
2023-04-18T00:48:39.313Z,101210.38
2023-04-18T00:49:41.682Z,101210.38
2023-04-18T00:50:44.119Z,101203.78
2023-04-18T00:51:46.990Z,101210.13
2023-04-18T00:52:49.682Z,101205.47
2023-04-18T00:53:52.320Z,101208.22
2023-04-18T00:54:55.836Z,101211.84
2023-04-18T00:55:58.168Z,101212.66
2023-04-18T00:57:01.005Z,101211.59
2023-04-18T00:58:03.288Z,101214.34
2023-04-18T00:59:07.561Z,101207.78
2023-04-18T01:00:10.583Z,101208.84
2023-04-18T01:01:13.629Z,101203.97
2023-04-18T01:02:16.033Z,101208.63
2023-04-18T01:03:18.605Z,101200.38
2023-04-18T01:04:21.823Z,101205.66
2023-04-18T01:05:24.946Z,101213.06
2023-04-18T01:06:27.438Z,101201.22
2023-04-18T01:07:31.373Z,101205.44
2023-04-18T01:08:33.942Z,101197.19
2023-04-18T01:09:37.094Z,101205.44
2023-04-18T01:10:39.355Z,101203.53
2023-04-18T01:11:41.641Z,101195.28
2023-04-18T01:12:44.869Z,101195.28
2023-04-18T01:14:07.508Z,101195.06
2023-04-18T01:15:12.177Z,101197.59
2023-04-18T01:16:14.473Z,101202.25
2023-04-18T01:17:17.676Z,101200.34
2023-04-18T01:18:21.037Z,101205.84
2023-04-18T01:19:23.360Z,101204.78
2023-04-18T01:20:26.556Z,101207.53
2023-04-18T01:21:31.532Z,101213.03
2023-04-18T01:22:34.212Z,101212.81
2023-04-18T01:23:36.636Z,101209.22
2023-04-18T01:24:39.595Z,101210.06
2023-04-18T01:25:42.829Z,101198.00
2023-04-18T01:26:49.303Z,101210.06
2023-04-18T01:27:51.792Z,101203.72
2023-04-18T01:28:54.129Z,101199.88
2023-04-18T01:29:56.431Z,101206.25
2023-04-18T01:30:59.206Z,101207.31
2023-04-18T01:32:02.810Z,101205.38
2023-04-18T01:33:05.864Z,101205.38
2023-04-18T01:34:08.597Z,101200.75
2023-04-18T01:35:11.301Z,101199.88
2023-04-18T01:36:13.604Z,101207.09
2023-04-18T01:37:15.858Z,101201.59
2023-04-18T01:38:18.154Z,101198.81
2023-04-18T01:39:20.481Z,101207.94
2023-04-18T01:40:23.351Z,101201.34
2023-04-18T01:41:25.872Z,101204.09
2023-04-18T01:42:28.133Z,101198.59
2023-04-18T01:43:30.416Z,101199.69
2023-04-18T01:44:32.641Z,101197.53
2023-04-18T01:45:34.872Z,101202.22
2023-04-18T01:46:37.391Z,101196.72
2023-04-18T01:47:39.931Z,101196.72
2023-04-18T01:48:42.532Z,101197.53
2023-04-18T01:49:48.333Z,101198.59
2023-04-18T01:50:50.892Z,101195.03
2023-04-18T01:51:53.175Z,101194.78
2023-04-18T01:52:57.069Z,101189.28
2023-04-18T01:53:59.332Z,101196.47
2023-04-18T01:55:04.518Z,101195.84
2023-04-18T01:56:06.974Z,101192.03
2023-04-18T01:57:10.517Z,101196.72
2023-04-18T01:58:13.632Z,101203.03
2023-04-18T01:59:15.865Z,101198.59
2023-04-18T02:00:18.571Z,101192.03
2023-04-18T02:01:20.938Z,101194.78
2023-04-18T02:02:23.535Z,101192.91
2023-04-18T02:03:27.528Z,101194.78
2023-04-18T02:04:29.958Z,101192.91
2023-04-18T02:05:32.226Z,101198.41
2023-04-18T02:06:35.010Z,101201.16
2023-04-18T02:07:37.330Z,101194.78
2023-04-18T02:08:39.565Z,101202.00
2023-04-18T02:09:41.974Z,101195.44
2023-04-18T02:10:46.667Z,101199.25
2023-04-18T02:11:48.967Z,101198.41
2023-04-18T02:12:51.308Z,101196.47
2023-04-18T02:13:53.693Z,101203.91
2023-04-18T02:14:56.093Z,101201.16
2023-04-18T02:15:58.345Z,101200.28
2023-04-18T02:17:01.110Z,101204.75
2023-04-18T02:18:03.590Z,101199.47
2023-04-18T02:19:06.603Z,101204.97
2023-04-18T02:20:11.023Z,101191.44
2023-04-18T02:21:13.363Z,101199.69
2023-04-18T02:22:15.840Z,101201.59
2023-04-18T02:23:18.503Z,101198.59
2023-04-18T02:24:20.792Z,101189.75
2023-04-18T02:25:24.402Z,101194.59
2023-04-18T02:26:26.623Z,101197.13
2023-04-18T02:27:33.029Z,101195.47
2023-04-18T02:28:35.348Z,101199.06
2023-04-18T02:29:38.887Z,101193.56
2023-04-18T02:30:41.231Z,101194.59
2023-04-18T02:31:43.510Z,101196.31
2023-04-18T02:32:45.933Z,101200.13
2023-04-18T02:33:48.668Z,101197.38
2023-04-18T02:34:50.980Z,101205.38
2023-04-18T02:35:53.271Z,101204.56
2023-04-18T02:36:55.583Z,101197.38
2023-04-18T02:37:57.800Z,101205.63
2023-04-18T02:39:00.481Z,101194.59
2023-04-18T02:40:05.073Z,101203.91
2023-04-18T02:41:08.048Z,101201.16
2023-04-18T02:42:10.338Z,101198.41
2023-04-18T02:43:12.663Z,101209.41
2023-04-18T02:44:15.124Z,101205.00
2023-04-18T02:45:17.876Z,101205.22
2023-04-18T02:46:20.165Z,101201.41
2023-04-18T02:47:24.167Z,101197.19
2023-04-18T02:48:26.503Z,101200.78
2023-04-18T02:49:29.030Z,101196.34
2023-04-18T02:50:32.222Z,101201.00
2023-04-18T02:51:34.558Z,101203.97
2023-04-18T02:52:37.225Z,101198.47
2023-04-18T02:53:39.585Z,101198.47
2023-04-18T02:54:42.096Z,101198.69
2023-04-18T02:55:49.338Z,101195.94
2023-04-18T02:56:55.324Z,101197.00
2023-04-18T02:58:01.223Z,101211.59
2023-04-18T02:59:29.090Z,101197.00
2023-04-18T03:00:47.078Z,101208.22
2023-04-18T03:02:05.862Z,101202.72
2023-04-18T03:03:10.619Z,101196.63
2023-04-18T03:04:26.011Z,101213.13
2023-04-18T03:05:32.929Z,101213.31
2023-04-18T03:06:38.817Z,101212.47
2023-04-18T03:07:43.912Z,101216.28
2023-04-18T03:08:46.254Z,101216.28
2023-04-18T03:09:49.139Z,101216.50
2023-04-18T03:11:01.062Z,101215.88
2023-04-18T03:12:05.777Z,101213.97
2023-04-18T03:13:09.730Z,101217.56
2023-04-18T03:14:12.485Z,101215.03
2023-04-18T03:15:21.261Z,101216.09
2023-04-18T03:16:24.163Z,101218.84
2023-04-18T03:17:26.620Z,101223.50
2023-04-18T03:18:28.907Z,101229.00
2023-04-18T03:19:34.711Z,101221.00
2023-04-18T03:20:41.610Z,101222.03
2023-04-18T03:21:43.938Z,101219.28
2023-04-18T03:22:47.441Z,101225.63
2023-04-18T03:23:53.449Z,101217.59
2023-04-18T03:24:57.994Z,101217.59
2023-04-18T03:26:15.146Z,101212.31
2023-04-18T03:27:19.765Z,101218.66
2023-04-18T03:28:22.951Z,101209.56
2023-04-18T03:29:25.622Z,101220.56
2023-04-18T03:30:28.357Z,101218.06
2023-04-18T03:31:33.761Z,101226.28
2023-04-18T03:32:36.647Z,101226.28
2023-04-18T03:33:39.423Z,101224.84
2023-04-18T03:34:45.475Z,101226.50
2023-04-18T03:35:47.788Z,101226.50
2023-04-18T03:36:50.128Z,101224.84
2023-04-18T03:37:52.826Z,101231.38
2023-04-18T03:39:01.132Z,101217.41
2023-04-18T03:40:05.524Z,101224.19
2023-04-18T03:41:07.920Z,101223.34
2023-04-18T03:42:12.364Z,101223.34
2023-04-18T03:43:16.340Z,101223.34
2023-04-18T03:44:18.644Z,101217.00
2023-04-18T03:45:21.272Z,101222.72
2023-04-18T03:46:24.774Z,101228.22
2023-04-18T03:47:32.119Z,101228.44
2023-04-18T03:48:37.439Z,101226.97
2023-04-18T03:49:44.051Z,101226.75
2023-04-18T03:50:46.921Z,101229.72
2023-04-18T03:51:50.481Z,101229.94
2023-04-18T03:52:53.542Z,101230.78
2023-04-18T03:53:55.805Z,101226.34
2023-04-18T03:54:59.224Z,101228.25
2023-04-18T03:56:08.154Z,101230.34
2023-04-18T03:57:30.653Z,101231.44
2023-04-18T03:58:33.383Z,101232.28
2023-04-18T03:59:36.098Z,101226.78
2023-04-18T04:00:38.424Z,101230.56
2023-04-18T04:01:44.181Z,101232.28
2023-04-18T04:02:46.558Z,101228.88
2023-04-18T04:03:55.099Z,101232.50
2023-04-18T04:04:58.082Z,101225.53
2023-04-18T04:06:01.184Z,101227.41
2023-04-18T04:07:03.680Z,101233.78
2023-04-18T04:08:06.195Z,101227.63
2023-04-18T04:09:09.518Z,101231.44
2023-04-18T04:10:11.896Z,101229.56
2023-04-18T04:11:14.184Z,101231.44
2023-04-18T04:12:16.682Z,101228.69
2023-04-18T04:13:19.296Z,101229.78
2023-04-18T04:14:22.909Z,101236.28
2023-04-18T04:15:25.167Z,101234.59
2023-04-18T04:16:33.518Z,101240.09
2023-04-18T04:17:36.215Z,101237.34
2023-04-18T04:18:38.848Z,101239.47
2023-04-18T04:19:41.143Z,101251.31
2023-04-18T04:20:50.573Z,101250.25
2023-04-18T04:22:05.714Z,101250.47
2023-04-18T04:23:08.612Z,101249.38
2023-04-18T04:24:13.905Z,101254.06
2023-04-18T04:25:20.379Z,101247.72
2023-04-18T04:26:23.880Z,101257.84
2023-04-18T04:27:36.876Z,101255.97
2023-04-18T04:28:43.138Z,101253.22
2023-04-18T04:29:46.260Z,101260.00
2023-04-18T04:30:51.327Z,101257.03
2023-04-18T04:31:53.700Z,101258.91
2023-04-18T04:33:04.643Z,101254.69
2023-04-18T04:34:07.256Z,101264.84
2023-04-18T04:35:10.015Z,101259.13
2023-04-18T04:36:16.706Z,101266.75
2023-04-18T04:37:21.025Z,101261.47
2023-04-18T04:38:46.095Z,101262.53
2023-04-18T04:39:48.750Z,101258.09
2023-04-18T04:41:08.012Z,101261.91
2023-04-18T04:42:12.368Z,101250.25
2023-04-18T04:43:25.698Z,101256.63
2023-04-18T04:44:31.572Z,101255.75
2023-04-18T04:45:34.564Z,101265.28
2023-04-18T04:46:40.419Z,101262.75
2023-04-18T04:47:50.759Z,101259.16
2023-04-18T04:48:54.630Z,101261.91
2023-04-18T04:49:56.927Z,101266.53
2023-04-18T04:51:01.247Z,101262.13
2023-04-18T04:52:04.960Z,101268.47
2023-04-18T04:53:08.734Z,101269.28
2023-04-18T04:54:12.743Z,101273.13
2023-04-18T04:55:17.607Z,101273.97
2023-04-18T04:56:23.216Z,101272.25
2023-04-18T04:57:25.777Z,101274.19
2023-04-18T04:58:30.038Z,101275.22
2023-04-18T04:59:44.978Z,101280.72
2023-04-18T05:00:48.082Z,101271.88
2023-04-18T05:01:51.717Z,101271.88
2023-04-18T05:02:56.293Z,101282.00
2023-04-18T05:04:00.854Z,101287.50
2023-04-18T05:05:03.305Z,101284.13
2023-04-18T05:06:06.018Z,101295.13
2023-04-18T05:07:08.289Z,101286.00
2023-04-18T05:08:10.608Z,101280.72
2023-04-18T05:09:15.768Z,101284.53
2023-04-18T05:10:19.444Z,101281.78
2023-04-18T05:11:22.088Z,101286.44
2023-04-18T05:12:24.413Z,101283.69
2023-04-18T05:13:26.647Z,101282.84
2023-04-18T05:14:29.260Z,101285.59
2023-04-18T05:15:31.903Z,101286.66
2023-04-18T05:16:36.052Z,101280.53
2023-04-18T05:17:38.457Z,101294.25
2023-04-18T05:18:41.603Z,101283.28
2023-04-18T05:19:44.408Z,101287.94
2023-04-18T05:20:46.681Z,101285.38
2023-04-18T05:21:53.442Z,101288.13
2023-04-18T05:22:55.747Z,101288.34
2023-04-18T05:23:58.011Z,101291.94
2023-04-18T05:25:00.398Z,101293.00
2023-04-18T05:26:06.654Z,101290.47
2023-04-18T05:27:08.995Z,101290.47
2023-04-18T05:28:11.241Z,101295.09
2023-04-18T05:29:14.251Z,101287.91
2023-04-18T05:30:16.782Z,101296.16
2023-04-18T05:31:19.082Z,101291.75
2023-04-18T05:32:21.747Z,101295.31
2023-04-18T05:33:24.105Z,101281.81
2023-04-18T05:34:26.477Z,101289.00
2023-04-18T05:35:29.122Z,101290.03
2023-04-18T05:36:32.529Z,101290.25
2023-04-18T05:37:35.958Z,101290.25
2023-04-18T05:38:39.317Z,101286.66
2023-04-18T05:39:42.050Z,101292.16
2023-04-18T05:40:44.446Z,101292.16
2023-04-18T05:41:47.037Z,101292.16
2023-04-18T05:42:49.325Z,101294.06
2023-04-18T05:44:02.408Z,101290.47
2023-04-18T05:45:08.450Z,101298.50
2023-04-18T05:46:12.662Z,101293.22
2023-04-18T05:47:15.040Z,101300.59
2023-04-18T05:48:17.389Z,101294.28
2023-04-18T05:49:21.294Z,101294.50
2023-04-18T05:50:24.050Z,101297.84
2023-04-18T05:51:26.922Z,101293.41
2023-04-18T05:52:29.516Z,101299.78
2023-04-18T05:53:31.866Z,101303.56
2023-04-18T05:54:34.117Z,101298.91
2023-04-18T05:55:36.796Z,101309.06
2023-04-18T05:56:39.178Z,101299.78
2023-04-18T05:57:41.748Z,101303.78
2023-04-18T05:58:45.743Z,101301.03
2023-04-18T05:59:48.207Z,101312.22
2023-04-18T06:00:50.466Z,101299.34
2023-04-18T06:01:53.190Z,101308.63
2023-04-18T06:02:55.545Z,101310.53
2023-04-18T06:03:58.879Z,101316.88
2023-04-18T06:05:01.699Z,101308.84
2023-04-18T06:06:04.324Z,101315.38
2023-04-18T06:07:06.649Z,101312.63
2023-04-18T06:08:09.103Z,101313.91
2023-04-18T06:09:12.746Z,101310.31
2023-04-18T06:10:15.942Z,101309.69
2023-04-18T06:11:20.329Z,101312.41
2023-04-18T06:12:22.656Z,101317.09
2023-04-18T06:13:24.981Z,101311.81
2023-04-18T06:14:27.915Z,101310.94
2023-04-18T06:15:30.235Z,101311.16
2023-04-18T06:16:33.856Z,101308.19
2023-04-18T06:17:36.244Z,101311.16
2023-04-18T06:18:39.157Z,101305.88
2023-04-18T06:19:41.447Z,101313.47
2023-04-18T06:20:45.486Z,101317.09
2023-04-18T06:21:48.999Z,101318.13
2023-04-18T06:22:51.240Z,101318.97
2023-04-18T06:23:53.553Z,101320.88
2023-04-18T06:24:56.615Z,101323.63
2023-04-18T06:25:59.563Z,101328.06
2023-04-18T06:27:02.091Z,101319.19
2023-04-18T06:28:05.942Z,101322.75
2023-04-18T06:29:08.291Z,101323.84
2023-04-18T06:30:11.290Z,101319.38
2023-04-18T06:31:14.740Z,101319.38
2023-04-18T06:32:17.451Z,101330.38
2023-04-18T06:33:21.510Z,101327.63
2023-04-18T06:34:27.864Z,101335.03
2023-04-18T06:35:31.478Z,101325.94
2023-04-18T06:36:37.283Z,101330.59
2023-04-18T06:37:42.620Z,101336.91
2023-04-18T06:38:45.359Z,101331.63
2023-04-18T06:39:47.762Z,101337.13
2023-04-18T06:40:50.072Z,101334.59
2023-04-18T06:41:52.369Z,101344.53
2023-04-18T06:43:03.359Z,101345.34
2023-04-18T06:44:07.067Z,101341.78
2023-04-18T06:45:12.839Z,101349.38
2023-04-18T06:46:15.204Z,101348.53
2023-04-18T06:47:17.709Z,101337.56
2023-04-18T06:48:20.001Z,101335.63
2023-04-18T06:49:26.348Z,101340.28
2023-04-18T06:50:29.480Z,101338.38
2023-04-18T06:51:32.013Z,101337.56
2023-04-18T06:52:35.949Z,101340.09
2023-04-18T06:53:38.327Z,101343.88
2023-04-18T06:54:41.151Z,101340.09
2023-04-18T06:55:43.548Z,101330.97
2023-04-18T06:56:46.338Z,101334.59
2023-04-18T06:57:48.599Z,101328.25
2023-04-18T06:58:53.092Z,101337.13
2023-04-18T06:59:55.486Z,101323.41
2023-04-18T07:00:57.899Z,101326.16
2023-04-18T07:02:00.627Z,101333.34
2023-04-18T07:03:11.431Z,101335.03
2023-04-18T07:04:14.626Z,101333.13
2023-04-18T07:05:19.036Z,101333.72
2023-04-18T07:06:21.933Z,101325.50
2023-04-18T07:07:24.713Z,101328.91
2023-04-18T07:08:27.024Z,101328.91
2023-04-18T07:09:29.532Z,101333.13
2023-04-18T07:10:32.387Z,101329.72
2023-04-18T07:11:34.903Z,101325.94
2023-04-18T07:12:38.643Z,101326.78
2023-04-18T07:13:40.930Z,101335.66
2023-04-18T07:14:43.249Z,101332.69
2023-04-18T07:15:45.630Z,101326.16
2023-04-18T07:16:47.938Z,101328.06
2023-04-18T07:17:50.286Z,101333.34
2023-04-18T07:18:52.540Z,101329.53
2023-04-18T07:19:55.180Z,101328.50
2023-04-18T07:20:58.018Z,101333.97
2023-04-18T07:22:00.878Z,101335.66
2023-04-18T07:23:03.280Z,101328.06
2023-04-18T07:24:05.725Z,101336.31
2023-04-18T07:25:11.100Z,101329.09
2023-04-18T07:26:13.912Z,101326.16
2023-04-18T07:27:16.732Z,101333.34
2023-04-18T07:28:19.161Z,101335.88
2023-04-18T07:29:21.502Z,101335.69
2023-04-18T07:30:24.248Z,101341.78
2023-04-18T07:31:28.702Z,101344.31
2023-04-18T07:32:31.785Z,101347.94
2023-04-18T07:33:35.491Z,101347.06
2023-04-18T07:34:37.916Z,101351.50
2023-04-18T07:35:40.752Z,101347.94
2023-04-18T07:36:43.007Z,101348.53
2023-04-18T07:37:46.005Z,101351.28
2023-04-18T07:38:49.663Z,101346.66
2023-04-18T07:39:52.940Z,101345.81
2023-04-18T07:40:59.710Z,101343.06
2023-04-18T07:42:05.256Z,101344.75
2023-04-18T07:43:07.652Z,101350.03
2023-04-18T07:44:09.971Z,101345.59
2023-04-18T07:45:12.191Z,101353.81
2023-04-18T07:46:14.652Z,101350.03
2023-04-18T07:47:17.359Z,101348.31
2023-04-18T07:48:22.872Z,101348.31
2023-04-18T07:49:25.164Z,101350.25
2023-04-18T07:50:30.517Z,101348.31
2023-04-18T07:51:32.868Z,101351.06
2023-04-18T07:52:36.325Z,101353.81
2023-04-18T07:53:41.292Z,101348.31
2023-04-18T07:54:43.897Z,101353.81
2023-04-18T07:55:48.479Z,101357.44
2023-04-18T07:56:54.187Z,101353.81
2023-04-18T07:57:58.730Z,101351.06
2023-04-18T07:59:02.000Z,101358.25
2023-04-18T08:00:05.090Z,101355.53
2023-04-18T08:01:18.570Z,101350.91
2023-04-18T08:02:21.821Z,101364.41
2023-04-18T08:03:24.545Z,101356.16
2023-04-18T08:04:28.360Z,101355.31
2023-04-18T08:05:32.477Z,101359.75
2023-04-18T08:06:36.638Z,101359.53
2023-04-18T08:07:40.048Z,101356.78
2023-04-18T08:08:44.151Z,101358.47
2023-04-18T08:09:46.659Z,101353.84
2023-04-18T08:10:49.686Z,101355.50
2023-04-18T08:11:52.060Z,101357.22
2023-04-18T08:12:55.152Z,101354.47
2023-04-18T08:14:01.337Z,101349.84
2023-04-18T08:15:04.514Z,101353.19
2023-04-18T08:16:08.973Z,101346.88
2023-04-18T08:17:11.245Z,101352.16
2023-04-18T08:18:14.003Z,101348.34
2023-04-18T08:19:16.616Z,101357.22
2023-04-18T08:20:19.131Z,101351.72
2023-04-18T08:21:22.159Z,101353.41
2023-04-18T08:22:24.422Z,101343.91
2023-04-18T08:23:26.856Z,101339.25
2023-04-18T08:24:30.082Z,101343.69
2023-04-18T08:25:35.618Z,101337.13
2023-04-18T08:26:38.652Z,101336.09
2023-04-18T08:27:41.157Z,101335.88
2023-04-18T08:28:46.570Z,101339.25
2023-04-18T08:29:50.635Z,101336.31
2023-04-18T08:30:56.068Z,101340.75
2023-04-18T08:32:01.755Z,101341.34
2023-04-18T08:33:04.136Z,101341.13
2023-04-18T08:34:07.915Z,101343.69
2023-04-18T08:35:10.517Z,101340.72
2023-04-18T08:36:13.164Z,101344.94
2023-04-18T08:37:16.485Z,101343.91
2023-04-18T08:38:19.420Z,101349.19
2023-04-18T08:39:23.186Z,101354.47
2023-04-18T08:40:27.150Z,101348.78
2023-04-18T08:41:35.971Z,101352.16
2023-04-18T08:42:38.808Z,101354.69
2023-04-18T08:43:41.054Z,101353.44
2023-04-18T08:44:43.496Z,101350.44
2023-04-18T08:45:46.088Z,101351.09
2023-04-18T08:46:49.581Z,101350.88
2023-04-18T08:47:52.729Z,101347.69
2023-04-18T08:48:58.753Z,101352.78
2023-04-18T08:50:01.825Z,101346.19
2023-04-18T08:51:05.187Z,101355.09
2023-04-18T08:52:13.622Z,101353.16
2023-04-18T08:53:17.888Z,101351.91
2023-04-18T08:54:22.679Z,101358.03
2023-04-18T08:55:26.028Z,101359.50
2023-04-18T08:56:29.597Z,101356.31
2023-04-18T08:57:33.635Z,101357.19
2023-04-18T08:58:35.933Z,101351.47
2023-04-18T08:59:38.821Z,101354.81
2023-04-18T09:00:41.842Z,101357.38
2023-04-18T09:01:56.652Z,101359.69
2023-04-18T09:03:00.201Z,101359.47
2023-04-18T09:04:03.191Z,101350.16
2023-04-18T09:05:14.508Z,101351.84
2023-04-18T09:06:22.017Z,101348.66
2023-04-18T09:07:30.089Z,101349.31
2023-04-18T09:08:32.323Z,101362.59
2023-04-18T09:09:51.109Z,101362.16
2023-04-18T09:10:53.773Z,101355.59
2023-04-18T09:12:10.196Z,101358.13
2023-04-18T09:13:12.669Z,101354.09
2023-04-18T09:14:26.514Z,101359.19
2023-04-18T09:15:31.004Z,101362.78
2023-04-18T09:16:47.219Z,101356.00
2023-04-18T09:17:54.535Z,101360.22
2023-04-18T09:19:15.052Z,101361.91
2023-04-18T09:20:35.771Z,101357.88
2023-04-18T09:21:47.950Z,101354.06
2023-04-18T09:22:57.894Z,101357.44
2023-04-18T09:24:17.815Z,101356.16
2023-04-18T09:25:36.133Z,101356.78
2023-04-18T09:26:39.572Z,101360.16
2023-04-18T09:27:42.122Z,101359.09
2023-04-18T09:28:53.929Z,101362.47
2023-04-18T09:29:58.009Z,101359.72
2023-04-18T09:31:13.169Z,101349.09
2023-04-18T09:32:27.308Z,101355.25
2023-04-18T09:33:35.588Z,101354.19
2023-04-18T09:34:42.734Z,101361.38
2023-04-18T09:35:45.535Z,101353.97
2023-04-18T09:37:04.842Z,101358.19
2023-04-18T09:38:08.178Z,101351.63
2023-04-18T09:39:25.878Z,101354.16
2023-04-18T09:40:29.918Z,101353.94
2023-04-18T09:41:32.852Z,101346.53
2023-04-18T09:42:38.298Z,101356.25
2023-04-18T09:43:40.779Z,101357.72
2023-04-18T09:45:06.120Z,101353.06
2023-04-18T09:46:09.668Z,101359.38
2023-04-18T09:47:11.949Z,101354.53
2023-04-18T09:48:14.270Z,101358.97
2023-04-18T09:49:17.801Z,101358.97
2023-04-18T09:50:21.125Z,101360.66
2023-04-18T09:51:23.525Z,101362.31
2023-04-18T09:52:26.274Z,101356.00
2023-04-18T09:53:29.603Z,101353.00
2023-04-18T09:54:33.202Z,101353.00
2023-04-18T09:55:36.252Z,101361.50
2023-04-18T09:56:42.939Z,101362.09
2023-04-18T09:57:47.661Z,101353.00
2023-04-18T09:58:56.578Z,101355.75
2023-04-18T10:00:04.341Z,101357.69
2023-04-18T10:01:08.671Z,101358.75
2023-04-18T10:02:19.775Z,101357.47
2023-04-18T10:03:26.678Z,101352.19
2023-04-18T10:04:31.141Z,101356.59
2023-04-18T10:05:36.108Z,101354.94
2023-04-18T10:06:42.182Z,101352.19
2023-04-18T10:07:46.574Z,101361.50
2023-04-18T10:08:50.570Z,101361.50
2023-04-18T10:09:53.813Z,101360.66
2023-04-18T10:10:59.090Z,101358.75
2023-04-18T10:12:02.883Z,101357.91
2023-04-18T10:13:07.340Z,101357.91
2023-04-18T10:14:13.339Z,101359.56
2023-04-18T10:15:18.060Z,101359.56
2023-04-18T10:16:20.989Z,101358.75
2023-04-18T10:17:23.934Z,101348.56
2023-04-18T10:18:26.388Z,101357.69
2023-04-18T10:19:30.259Z,101358.75
2023-04-18T10:20:35.129Z,101357.69
2023-04-18T10:21:38.295Z,101359.56
2023-04-18T10:22:40.600Z,101359.56
2023-04-18T10:23:42.862Z,101360.66
2023-04-18T10:24:54.743Z,101355.16
2023-04-18T10:25:57.243Z,101354.06
2023-04-18T10:26:59.466Z,101357.03
2023-04-18T10:28:02.812Z,101359.56
2023-04-18T10:29:05.173Z,101356.59
2023-04-18T10:30:09.170Z,101351.31
2023-04-18T10:31:13.153Z,101354.94
2023-04-18T10:32:16.536Z,101358.75
2023-04-18T10:33:33.789Z,101361.50
2023-04-18T10:34:37.789Z,101357.69
2023-04-18T10:35:59.484Z,101354.94
2023-04-18T10:37:06.050Z,101357.69
2023-04-18T10:38:16.824Z,101351.31
2023-04-18T10:39:23.884Z,101360.22
2023-04-18T10:40:34.468Z,101356.59
2023-04-18T10:41:49.479Z,101360.22
2023-04-18T10:42:52.864Z,101358.50
2023-04-18T10:44:10.520Z,101348.97
2023-04-18T10:45:26.959Z,101350.88
2023-04-18T10:46:32.857Z,101348.97
2023-04-18T10:47:35.513Z,101355.09
2023-04-18T10:48:39.384Z,101348.75
2023-04-18T10:49:53.882Z,101348.50
2023-04-18T10:51:16.352Z,101352.13
2023-04-18T10:52:19.055Z,101349.38
2023-04-18T10:53:21.430Z,101350.22
2023-04-18T10:54:47.617Z,101347.44
2023-04-18T10:55:55.379Z,101346.41
2023-04-18T10:56:59.936Z,101359.09
2023-04-18T10:58:03.533Z,101345.34
2023-04-18T10:59:06.593Z,101345.09
2023-04-18T11:00:14.597Z,101334.09
2023-04-18T11:01:24.820Z,101347.63
2023-04-18T11:02:31.068Z,101347.63
2023-04-18T11:03:34.576Z,101354.84
2023-04-18T11:04:38.123Z,101347.41
2023-04-18T11:05:40.744Z,101344.47
2023-04-18T11:06:50.566Z,101344.47
2023-04-18T11:07:53.780Z,101347.81
2023-04-18T11:09:13.845Z,101347.81
2023-04-18T11:10:25.637Z,101344.81
2023-04-18T11:11:27.983Z,101352.03
2023-04-18T11:12:35.805Z,101352.03
2023-04-18T11:13:54.816Z,101343.53
2023-04-18T11:14:57.222Z,101352.91
2023-04-18T11:15:59.685Z,101344.41
2023-04-18T11:17:19.446Z,101346.06
2023-04-18T11:18:21.804Z,101348.81
2023-04-18T11:19:26.029Z,101345.25
2023-04-18T11:20:31.249Z,101346.94
2023-04-18T11:21:33.586Z,101347.75
2023-04-18T11:22:49.947Z,101344.19
2023-04-18T11:23:52.316Z,101346.69
2023-04-18T11:25:01.176Z,101343.94
2023-04-18T11:26:03.559Z,101344.19
2023-04-18T11:27:08.556Z,101343.94
2023-04-18T11:28:13.755Z,101346.69
2023-04-18T11:29:19.565Z,101347.53
2023-04-18T11:30:22.192Z,101343.94
2023-04-18T11:31:25.395Z,101342.03
2023-04-18T11:32:27.864Z,101344.78
2023-04-18T11:33:31.539Z,101346.47
2023-04-18T11:34:34.202Z,101343.72
2023-04-18T11:35:44.464Z,101346.47
2023-04-18T11:36:51.315Z,101341.81
2023-04-18T11:37:54.574Z,101343.50
2023-04-18T11:38:56.924Z,101346.25
2023-04-18T11:39:59.481Z,101350.69
2023-04-18T11:41:04.976Z,101348.81
2023-04-18T11:42:07.282Z,101346.03
2023-04-18T11:43:09.702Z,101344.13
2023-04-18T11:44:12.181Z,101347.72
2023-04-18T11:45:16.060Z,101347.72
2023-04-18T11:46:18.503Z,101343.06
2023-04-18T11:47:28.983Z,101349.41
2023-04-18T11:48:41.950Z,101345.59
2023-04-18T11:49:44.331Z,101345.34
2023-04-18T11:50:46.659Z,101346.22
2023-04-18T11:51:48.884Z,101354.25
2023-04-18T11:52:52.425Z,101342.38
2023-04-18T11:53:57.088Z,101350.44
2023-04-18T11:55:25.193Z,101346.59
2023-04-18T11:56:27.545Z,101351.91
2023-04-18T11:57:30.585Z,101348.28
2023-04-18T11:58:34.838Z,101357.41
2023-04-18T11:59:38.416Z,101349.75
2023-04-18T12:00:43.775Z,101353.38
2023-04-18T12:01:46.236Z,101351.44
2023-04-18T12:02:51.599Z,101359.47
2023-04-18T12:04:08.107Z,101350.38
2023-04-18T12:05:15.459Z,101361.19
2023-04-18T12:06:18.032Z,101357.38
2023-04-18T12:07:41.041Z,101356.53
2023-04-18T12:08:43.484Z,101351.88
2023-04-18T12:09:45.810Z,101353.53
2023-04-18T12:10:52.477Z,101353.53
2023-04-18T12:12:03.086Z,101355.25
2023-04-18T12:13:09.060Z,101351.19
2023-04-18T12:14:22.048Z,101351.19
2023-04-18T12:15:29.705Z,101352.06
2023-04-18T12:16:33.640Z,101352.88
2023-04-18T12:17:38.206Z,101353.72